Fallston, NC

5:11 AM EDT on October 01, 2014 (GMT -0400)
Dellview | Change Station
CLOSE
Current Station
Personal Weather Station
Location: Cherryville, NC
Elevation: 978 ft
Nearby Weather Stations

Elev 978 ft 35.39 °N, 81.42 °W | Updated 10 seconds ago

Clear
Clear
56.1 °F
Feels Like 56.1 °F
N
0.0
Wind Variable Wind from SW
Gusts 0.0 mph

Today
High -- | Low -- °F
--% Chance of Precip.
Yesterday
High -- | Low -- °F
Precip. -- in
7:20 AM 7:09 PM
Waxing Crescent, 45% visible
Pressure 29.94 in
Visibility 4.0 miles
Clouds Clear
Dew Point 56 °F
Humidity 99%
Rainfall 0.00 in
Snow Depth Not available.
UV 0 out of 12
Pollen 4.60 out of 12
Ozone Good
PM2.5 Moderate
Flu Activity Not available.
METAR KEHO 010835Z AUTO 00000KT 4SM BR CLR 15/15 A2994 RMK AO2 T01480148

More Conditions Fewer Conditions

Pressure 29.94 in
Visibility 4.0 miles
Clouds Clear
Dew Point 56 °F
Humidity 99%
Rainfall 0.00 in
Snow Depth Not available.
UV 0 out of 12
Pollen 4.60 out of 12
Ozone Good
PM2.5 Moderate
Flu Activity Not available.
METAR KEHO 010835Z AUTO 00000KT 4SM BR CLR 15/15 A2994 RMK AO2 T01480148

More Conditions Fewer Conditions

10-Day Weather Forecast

Almanac

Astronomy

Oct. 01, 2014 Rise Set
Actual Time 7:20 AM EDT 7:09 PM EDT
Civil Twilight 6:55 AM EDT 7:35 PM EDT
Nautical Twilight 6:25 AM EDT 8:04 PM EDT
Astronomical Twilight 5:56 AM EDT 8:34 PM EDT
Moon 2:11 PM EDT No Moon Set
Length of Visible Light 12h 39m
Length of Day
11h 48m
Tomorrow will be 2m 13s shorter.
Waxing Crescent, 45% of the Moon is Illuminated
Today
Waxing Crescent
Oct 1
First Quarter
Oct 8
Full
Oct 15
Last Quarter
Oct 23
New

Today's Extremes

State Highs State Lows

Community

WunderPhotos

Upload Photos

1,757,902 photos uploaded!

Nearby

Air Quality

  Air Quality AQ Index Pollutant
Yesterday Good
PM2.5
Yesterday Good
OZONE
Current Moderate
PM2.5
Current Good
OZONE
Wednesday Moderate
OZONE
Wednesday Moderate
PM2.5
Thursday Moderate
OZONE
Thursday Moderate
PM2.5
Friday Moderate
PM2.5
Friday Good
OZONE

Snow Depth

Station Depth Elevation
No new snow has been reported.

Earthquake Activity

City Distance Mag. Time & Date
No recent earthquake activity has been reported nearby.
Minimum magnitude displayed is 2.5.

Coastal Water Temperatures

Place Temperature
No Stations Reporting

Nearby Weather Stations